sensor_id;sensor_type;location;lat;lon;timestamp;temperature;humidity
1704;DHT22;849;48.780;9.216;2022-10-16T00:00:40;18.60;99.90
1704;DHT22;849;48.780;9.216;2022-10-16T00:03:07;18.60;99.90
1704;DHT22;849;48.780;9.216;2022-10-16T00:05:38;18.70;99.90
1704;DHT22;849;48.780;9.216;2022-10-16T00:08:04;18.60;99.90
1704;DHT22;849;48.780;9.216;2022-10-16T00:10:30;18.70;99.90
1704;DHT22;849;48.780;9.216;2022-10-16T00:12:56;18.60;99.90
1704;DHT22;849;48.780;9.216;2022-10-16T00:15:21;18.70;99.90
1704;DHT22;849;48.780;9.216;2022-10-16T00:17:47;18.60;99.90
1704;DHT22;849;48.780;9.216;2022-10-16T00:20:13;18.60;99.90
1704;DHT22;849;48.780;9.216;2022-10-16T00:22:38;18.60;99.90
1704;DHT22;849;48.780;9.216;2022-10-16T00:25:05;18.60;99.90
1704;DHT22;849;48.780;9.216;2022-10-16T00:27:31;18.60;99.90
1704;DHT22;849;48.780;9.216;2022-10-16T00:29:56;18.50;99.90
1704;DHT22;849;48.780;9.216;2022-10-16T00:32:22;18.50;99.90
1704;DHT22;849;48.780;9.216;2022-10-16T00:34:48;18.50;99.90
1704;DHT22;849;48.780;9.216;2022-10-16T00:37:13;18.40;99.90
1704;DHT22;849;48.780;9.216;2022-10-16T00:39:39;18.20;99.90
1704;DHT22;849;48.780;9.216;2022-10-16T00:42:05;18.20;99.90
1704;DHT22;849;48.780;9.216;2022-10-16T00:44:51;18.10;99.90
1704;DHT22;849;48.780;9.216;2022-10-16T00:49:46;18.20;99.90
1704;DHT22;849;48.780;9.216;2022-10-16T00:52:13;18.20;99.90
1704;DHT22;849;48.780;9.216;2022-10-16T00:54:39;18.20;99.90
1704;DHT22;849;48.780;9.216;2022-10-16T00:57:06;17.80;99.90
1704;DHT22;849;48.780;9.216;2022-10-16T00:59:41;17.90;99.90
1704;DHT22;849;48.780;9.216;2022-10-16T01:02:11;18.10;99.90
1704;DHT22;849;48.780;9.216;2022-10-16T01:04:46;18.10;99.90
1704;DHT22;849;48.780;9.216;2022-10-16T01:12:49;18.20;99.90
1704;DHT22;849;48.780;9.216;2022-10-16T01:15:33;18.20;99.90
1704;DHT22;849;48.780;9.216;2022-10-16T01:18:08;18.10;99.90
1704;DHT22;849;48.780;9.216;2022-10-16T01:20:42;18.10;99.90
1704;DHT22;849;48.780;9.216;2022-10-16T01:28:34;18.00;99.90
1704;DHT22;849;48.780;9.216;2022-10-16T01:31:02;18.10;99.90
1704;DHT22;849;48.780;9.216;2022-10-16T01:33:35;18.10;99.90
1704;DHT22;849;48.780;9.216;2022-10-16T01:36:31;18.00;99.90
1704;DHT22;849;48.780;9.216;2022-10-16T01:38:56;17.90;99.90
1704;DHT22;849;48.780;9.216;2022-10-16T01:41:43;17.90;99.90
1704;DHT22;849;48.780;9.216;2022-10-16T01:44:17;17.90;99.90
1704;DHT22;849;48.780;9.216;2022-10-16T01:46:47;17.90;99.90
1704;DHT22;849;48.780;9.216;2022-10-16T01:49:14;17.80;99.90
1704;DHT22;849;48.780;9.216;2022-10-16T01:51:43;17.90;99.90
1704;DHT22;849;48.780;9.216;2022-10-16T01:54:12;17.90;99.90
1704;DHT22;849;48.780;9.216;2022-10-16T01:56:39;18.00;99.90
1704;DHT22;849;48.780;9.216;2022-10-16T01:59:10;18.10;99.90
1704;DHT22;849;48.780;9.216;2022-10-16T02:01:39;18.10;99.90
1704;DHT22;849;48.780;9.216;2022-10-16T02:04:17;18.10;99.90
1704;DHT22;849;48.780;9.216;2022-10-16T02:06:44;18.30;99.90
1704;DHT22;849;48.780;9.216;2022-10-16T02:09:10;18.30;99.90
1704;DHT22;849;48.780;9.216;2022-10-16T02:11:35;18.30;99.90
1704;DHT22;849;48.780;9.216;2022-10-16T02:14:06;18.20;99.90
1704;DHT22;849;48.780;9.216;2022-10-16T02:16:40;18.20;99.90
1704;DHT22;849;48.780;9.216;2022-10-16T02:19:07;18.30;99.90
1704;DHT22;849;48.780;9.216;2022-10-16T02:21:41;18.30;99.90
1704;DHT22;849;48.780;9.216;2022-10-16T02:24:25;18.30;99.90
1704;DHT22;849;48.780;9.216;2022-10-16T02:27:20;18.30;99.90
1704;DHT22;849;48.780;9.216;2022-10-16T02:29:49;18.20;99.90
1704;DHT22;849;48.780;9.216;2022-10-16T02:32:20;18.20;99.90
1704;DHT22;849;48.780;9.216;2022-10-16T02:34:48;18.10;99.90
1704;DHT22;849;48.780;9.216;2022-10-16T02:37:14;17.90;99.90
1704;DHT22;849;48.780;9.216;2022-10-16T02:39:41;18.10;99.90
1704;DHT22;849;48.780;9.216;2022-10-16T02:42:12;18.00;99.90
1704;DHT22;849;48.780;9.216;2022-10-16T02:44:38;18.00;99.90
1704;DHT22;849;48.780;9.216;2022-10-16T02:47:04;18.00;99.90
1704;DHT22;849;48.780;9.216;2022-10-16T02:49:30;18.10;99.90
1704;DHT22;849;48.780;9.216;2022-10-16T02:51:55;18.20;99.90
1704;DHT22;849;48.780;9.216;2022-10-16T02:54:21;18.10;99.90
1704;DHT22;849;48.780;9.216;2022-10-16T02:56:47;18.20;99.90
1704;DHT22;849;48.780;9.216;2022-10-16T02:59:12;18.10;99.90
1704;DHT22;849;48.780;9.216;2022-10-16T03:01:38;18.10;99.90
1704;DHT22;849;48.780;9.216;2022-10-16T03:04:04;18.20;99.90
1704;DHT22;849;48.780;9.216;2022-10-16T03:06:29;18.30;99.90
1704;DHT22;849;48.780;9.216;2022-10-16T03:08:55;18.30;99.90
1704;DHT22;849;48.780;9.216;2022-10-16T03:11:21;18.20;99.90
1704;DHT22;849;48.780;9.216;2022-10-16T03:13:46;18.20;99.90
1704;DHT22;849;48.780;9.216;2022-10-16T03:16:12;18.20;99.90
1704;DHT22;849;48.780;9.216;2022-10-16T03:18:38;18.20;99.90
1704;DHT22;849;48.780;9.216;2022-10-16T03:21:03;18.20;99.90
1704;DHT22;849;48.780;9.216;2022-10-16T03:23:29;18.10;99.90
1704;DHT22;849;48.780;9.216;2022-10-16T03:25:55;18.20;99.90
1704;DHT22;849;48.780;9.216;2022-10-16T03:28:21;18.10;99.90
1704;DHT22;849;48.780;9.216;2022-10-16T03:30:46;18.10;99.90
1704;DHT22;849;48.780;9.216;2022-10-16T03:33:12;18.00;99.90
1704;DHT22;849;48.780;9.216;2022-10-16T03:35:37;18.00;99.90
1704;DHT22;849;48.780;9.216;2022-10-16T03:38:03;18.00;99.90
1704;DHT22;849;48.780;9.216;2022-10-16T03:40:29;18.00;99.90
1704;DHT22;849;48.780;9.216;2022-10-16T03:42:56;17.90;99.90
1704;DHT22;849;48.780;9.216;2022-10-16T03:45:23;17.90;99.90
1704;DHT22;849;48.780;9.216;2022-10-16T03:47:48;18.00;99.90
1704;DHT22;849;48.780;9.216;2022-10-16T03:50:14;17.90;99.90
1704;DHT22;849;48.780;9.216;2022-10-16T03:52:40;17.90;99.90
1704;DHT22;849;48.780;9.216;2022-10-16T03:55:06;18.00;99.90
1704;DHT22;849;48.780;9.216;2022-10-16T03:57:32;17.90;99.90
1704;DHT22;849;48.780;9.216;2022-10-16T03:59:57;17.90;99.90
1704;DHT22;849;48.780;9.216;2022-10-16T04:02:23;18.00;99.90
1704;DHT22;849;48.780;9.216;2022-10-16T04:04:49;17.90;99.90
1704;DHT22;849;48.780;9.216;2022-10-16T04:07:15;17.80;99.90
1704;DHT22;849;48.780;9.216;2022-10-16T04:09:40;17.70;99.90
1704;DHT22;849;48.780;9.216;2022-10-16T04:12:07;17.60;99.90
1704;DHT22;849;48.780;9.216;2022-10-16T04:14:32;17.70;99.90
1704;DHT22;849;48.780;9.216;2022-10-16T04:16:58;17.70;99.90
1704;DHT22;849;48.780;9.216;2022-10-16T04:19:24;17.70;99.90
1704;DHT22;849;48.780;9.216;2022-10-16T04:21:49;17.80;99.90
1704;DHT22;849;48.780;9.216;2022-10-16T04:24:15;17.80;99.90
1704;DHT22;849;48.780;9.216;2022-10-16T04:26:41;17.80;99.90
1704;DHT22;849;48.780;9.216;2022-10-16T04:29:06;17.80;99.90
1704;DHT22;849;48.780;9.216;2022-10-16T04:31:33;17.80;99.90
1704;DHT22;849;48.780;9.216;2022-10-16T04:33:58;17.80;99.90
1704;DHT22;849;48.780;9.216;2022-10-16T04:36:24;17.80;99.90
1704;DHT22;849;48.780;9.216;2022-10-16T04:38:49;17.80;99.90
1704;DHT22;849;48.780;9.216;2022-10-16T04:41:15;17.80;99.90
1704;DHT22;849;48.780;9.216;2022-10-16T04:43:41;18.00;99.90
1704;DHT22;849;48.780;9.216;2022-10-16T04:46:06;18.00;99.90
1704;DHT22;849;48.780;9.216;2022-10-16T04:48:32;18.00;99.90
1704;DHT22;849;48.780;9.216;2022-10-16T04:50:58;17.80;99.90
1704;DHT22;849;48.780;9.216;2022-10-16T04:53:23;17.80;99.90
1704;DHT22;849;48.780;9.216;2022-10-16T04:55:50;17.80;99.90
1704;DHT22;849;48.780;9.216;2022-10-16T04:58:16;17.80;99.90
1704;DHT22;849;48.780;9.216;2022-10-16T05:00:42;17.80;99.90
1704;DHT22;849;48.780;9.216;2022-10-16T05:03:08;17.80;99.90
1704;DHT22;849;48.780;9.216;2022-10-16T05:05:35;17.90;99.90
1704;DHT22;849;48.780;9.216;2022-10-16T05:08:01;17.60;99.90
1704;DHT22;849;48.780;9.216;2022-10-16T05:10:27;17.60;99.90
1704;DHT22;849;48.780;9.216;2022-10-16T05:12:53;17.60;99.90
1704;DHT22;849;48.780;9.216;2022-10-16T05:15:19;17.70;99.90
1704;DHT22;849;48.780;9.216;2022-10-16T05:17:45;17.50;99.90
1704;DHT22;849;48.780;9.216;2022-10-16T05:20:11;17.50;99.90
1704;DHT22;849;48.780;9.216;2022-10-16T05:22:36;17.50;99.90
1704;DHT22;849;48.780;9.216;2022-10-16T05:25:02;17.50;99.90
1704;DHT22;849;48.780;9.216;2022-10-16T05:27:28;17.60;99.90
1704;DHT22;849;48.780;9.216;2022-10-16T05:29:54;17.60;99.90
1704;DHT22;849;48.780;9.216;2022-10-16T05:32:19;17.70;99.90
1704;DHT22;849;48.780;9.216;2022-10-16T05:34:45;17.60;99.90
1704;DHT22;849;48.780;9.216;2022-10-16T05:37:11;17.60;99.90
1704;DHT22;849;48.780;9.216;2022-10-16T05:39:38;17.60;99.90
1704;DHT22;849;48.780;9.216;2022-10-16T05:42:04;17.60;99.90
1704;DHT22;849;48.780;9.216;2022-10-16T05:44:30;17.60;99.90
1704;DHT22;849;48.780;9.216;2022-10-16T05:46:56;17.50;99.90
1704;DHT22;849;48.780;9.216;2022-10-16T05:49:22;17.40;99.90
1704;DHT22;849;48.780;9.216;2022-10-16T05:51:47;17.40;99.90
1704;DHT22;849;48.780;9.216;2022-10-16T05:54:13;17.40;99.90
1704;DHT22;849;48.780;9.216;2022-10-16T05:56:39;17.40;99.90
1704;DHT22;849;48.780;9.216;2022-10-16T05:59:05;17.40;99.90
1704;DHT22;849;48.780;9.216;2022-10-16T06:01:31;17.50;99.90
1704;DHT22;849;48.780;9.216;2022-10-16T06:03:57;17.60;99.90
1704;DHT22;849;48.780;9.216;2022-10-16T06:06:25;17.60;99.90
1704;DHT22;849;48.780;9.216;2022-10-16T06:08:52;17.60;99.90
1704;DHT22;849;48.780;9.216;2022-10-16T06:11:20;17.70;99.90
1704;DHT22;849;48.780;9.216;2022-10-16T06:13:55;17.60;99.90
1704;DHT22;849;48.780;9.216;2022-10-16T06:16:22;17.50;99.90
1704;DHT22;849;48.780;9.216;2022-10-16T06:18:51;17.60;99.90
1704;DHT22;849;48.780;9.216;2022-10-16T06:21:22;17.50;99.90
1704;DHT22;849;48.780;9.216;2022-10-16T06:23:50;17.60;99.90
1704;DHT22;849;48.780;9.216;2022-10-16T06:26:18;17.70;99.90
1704;DHT22;849;48.780;9.216;2022-10-16T06:28:45;17.60;99.90
1704;DHT22;849;48.780;9.216;2022-10-16T06:31:12;17.60;99.90
1704;DHT22;849;48.780;9.216;2022-10-16T06:33:38;17.50;99.90
1704;DHT22;849;48.780;9.216;2022-10-16T06:36:10;17.60;99.90
1704;DHT22;849;48.780;9.216;2022-10-16T06:38:37;17.50;99.90
1704;DHT22;849;48.780;9.216;2022-10-16T06:41:04;17.50;99.90
1704;DHT22;849;48.780;9.216;2022-10-16T06:43:31;17.60;99.90
1704;DHT22;849;48.780;9.216;2022-10-16T06:45:59;17.70;99.90
1704;DHT22;849;48.780;9.216;2022-10-16T06:48:25;17.80;99.90
1704;DHT22;849;48.780;9.216;2022-10-16T06:50:58;17.80;99.90
1704;DHT22;849;48.780;9.216;2022-10-16T06:53:25;17.90;99.90
1704;DHT22;849;48.780;9.216;2022-10-16T06:55:51;17.90;99.90
1704;DHT22;849;48.780;9.216;2022-10-16T06:58:17;17.90;99.90
1704;DHT22;849;48.780;9.216;2022-10-16T07:00:43;17.90;99.90
1704;DHT22;849;48.780;9.216;2022-10-16T07:03:08;18.00;99.90
1704;DHT22;849;48.780;9.216;2022-10-16T07:05:41;18.00;99.90
1704;DHT22;849;48.780;9.216;2022-10-16T07:08:07;18.10;99.90
1704;DHT22;849;48.780;9.216;2022-10-16T07:10:34;18.10;99.90
1704;DHT22;849;48.780;9.216;2022-10-16T07:13:00;18.00;99.90
1704;DHT22;849;48.780;9.216;2022-10-16T07:15:26;18.10;99.90
1704;DHT22;849;48.780;9.216;2022-10-16T07:17:52;18.20;99.90
1704;DHT22;849;48.780;9.216;2022-10-16T07:20:18;18.30;99.90
1704;DHT22;849;48.780;9.216;2022-10-16T07:22:44;18.30;99.90
1704;DHT22;849;48.780;9.216;2022-10-16T07:25:10;18.50;99.90
1704;DHT22;849;48.780;9.216;2022-10-16T07:27:38;18.40;99.90
1704;DHT22;849;48.780;9.216;2022-10-16T07:30:05;18.30;99.90
1704;DHT22;849;48.780;9.216;2022-10-16T07:32:31;18.10;99.90
1704;DHT22;849;48.780;9.216;2022-10-16T07:34:57;18.20;99.90
1704;DHT22;849;48.780;9.216;2022-10-16T07:37:23;18.20;99.90
1704;DHT22;849;48.780;9.216;2022-10-16T07:39:49;18.20;99.90
1704;DHT22;849;48.780;9.216;2022-10-16T07:42:15;18.20;99.90
1704;DHT22;849;48.780;9.216;2022-10-16T07:44:40;18.30;99.90
1704;DHT22;849;48.780;9.216;2022-10-16T07:47:06;18.40;99.90
1704;DHT22;849;48.780;9.216;2022-10-16T07:49:32;18.40;99.90
1704;DHT22;849;48.780;9.216;2022-10-16T07:51:58;18.50;99.90
1704;DHT22;849;48.780;9.216;2022-10-16T07:54:23;18.60;99.90
1704;DHT22;849;48.780;9.216;2022-10-16T07:56:49;18.30;99.90
1704;DHT22;849;48.780;9.216;2022-10-16T07:59:15;18.30;99.90
1704;DHT22;849;48.780;9.216;2022-10-16T08:01:41;18.30;99.90
1704;DHT22;849;48.780;9.216;2022-10-16T08:04:08;18.50;99.90
1704;DHT22;849;48.780;9.216;2022-10-16T08:06:39;18.70;99.90
1704;DHT22;849;48.780;9.216;2022-10-16T08:09:06;18.80;99.90
1704;DHT22;849;48.780;9.216;2022-10-16T08:11:32;18.80;99.90
1704;DHT22;849;48.780;9.216;2022-10-16T08:13:58;18.70;99.90
1704;DHT22;849;48.780;9.216;2022-10-16T08:16:24;18.80;99.90
1704;DHT22;849;48.780;9.216;2022-10-16T08:18:50;18.90;99.90
1704;DHT22;849;48.780;9.216;2022-10-16T08:21:18;19.10;99.90
1704;DHT22;849;48.780;9.216;2022-10-16T08:23:44;19.20;99.90
1704;DHT22;849;48.780;9.216;2022-10-16T08:26:11;19.00;99.90
1704;DHT22;849;48.780;9.216;2022-10-16T08:28:37;19.00;99.90
1704;DHT22;849;48.780;9.216;2022-10-16T08:33:32;18.90;99.90
1704;DHT22;849;48.780;9.216;2022-10-16T08:36:00;18.90;99.90
1704;DHT22;849;48.780;9.216;2022-10-16T08:38:25;19.10;99.90
1704;DHT22;849;48.780;9.216;2022-10-16T08:40:51;19.20;99.90
1704;DHT22;849;48.780;9.216;2022-10-16T08:43:28;19.10;99.90
1704;DHT22;849;48.780;9.216;2022-10-16T08:48:45;19.40;99.90
1704;DHT22;849;48.780;9.216;2022-10-16T08:51:22;19.50;99.90
1704;DHT22;849;48.780;9.216;2022-10-16T08:53:58;19.60;99.90
1704;DHT22;849;48.780;9.216;2022-10-16T08:56:25;19.80;99.90
1704;DHT22;849;48.780;9.216;2022-10-16T08:58:52;19.90;99.90
1704;DHT22;849;48.780;9.216;2022-10-16T09:01:20;19.90;99.90
1704;DHT22;849;48.780;9.216;2022-10-16T09:03:55;19.90;99.90
1704;DHT22;849;48.780;9.216;2022-10-16T09:06:47;19.90;99.90
1704;DHT22;849;48.780;9.216;2022-10-16T09:14:43;20.20;99.90
1704;DHT22;849;48.780;9.216;2022-10-16T09:17:36;20.10;99.90
1704;DHT22;849;48.780;9.216;2022-10-16T09:20:19;20.50;99.90
1704;DHT22;849;48.780;9.216;2022-10-16T09:22:48;20.60;99.90
1704;DHT22;849;48.780;9.216;2022-10-16T09:25:17;20.30;99.90
1704;DHT22;849;48.780;9.216;2022-10-16T09:27:48;20.10;99.90
1704;DHT22;849;48.780;9.216;2022-10-16T09:30:18;19.80;99.90
1704;DHT22;849;48.780;9.216;2022-10-16T09:32:45;19.70;99.90
1704;DHT22;849;48.780;9.216;2022-10-16T09:35:24;19.90;99.90
1704;DHT22;849;48.780;9.216;2022-10-16T09:37:54;20.00;99.90
1704;DHT22;849;48.780;9.216;2022-10-16T09:40:38;20.10;99.90
1704;DHT22;849;48.780;9.216;2022-10-16T09:43:20;19.90;99.90
1704;DHT22;849;48.780;9.216;2022-10-16T09:46:03;19.80;99.90
1704;DHT22;849;48.780;9.216;2022-10-16T09:48:38;19.80;99.90
1704;DHT22;849;48.780;9.216;2022-10-16T09:51:06;19.70;99.90
1704;DHT22;849;48.780;9.216;2022-10-16T09:53:45;19.90;99.90
1704;DHT22;849;48.780;9.216;2022-10-16T09:56:20;19.90;99.90
1704;DHT22;849;48.780;9.216;2022-10-16T09:58:54;20.00;99.90
1704;DHT22;849;48.780;9.216;2022-10-16T10:01:24;20.10;99.90
1704;DHT22;849;48.780;9.216;2022-10-16T10:03:56;20.20;99.90
1704;DHT22;849;48.780;9.216;2022-10-16T10:09:13;20.20;99.90
1704;DHT22;849;48.780;9.216;2022-10-16T10:11:51;20.30;99.90
1704;DHT22;849;48.780;9.216;2022-10-16T10:14:58;20.40;99.90
1704;DHT22;849;48.780;9.216;2022-10-16T10:17:21;20.40;99.90
1704;DHT22;849;48.780;9.216;2022-10-16T10:19:52;20.40;99.90
1704;DHT22;849;48.780;9.216;2022-10-16T10:25:00;20.70;99.90
1704;DHT22;849;48.780;9.216;2022-10-16T10:27:41;20.90;99.90
1704;DHT22;849;48.780;9.216;2022-10-16T10:35:56;21.20;99.90
1704;DHT22;849;48.780;9.216;2022-10-16T10:41:22;21.40;99.90
1704;DHT22;849;48.780;9.216;2022-10-16T10:46:34;21.60;99.90
1704;DHT22;849;48.780;9.216;2022-10-16T10:57:28;21.90;99.90
1704;DHT22;849;48.780;9.216;2022-10-16T11:07:52;21.70;99.90
1704;DHT22;849;48.780;9.216;2022-10-16T11:10:27;21.60;99.90
1704;DHT22;849;48.780;9.216;2022-10-16T11:13:10;21.60;99.90
1704;DHT22;849;48.780;9.216;2022-10-16T11:15:41;21.60;99.90
1704;DHT22;849;48.780;9.216;2022-10-16T11:18:16;21.60;99.90
1704;DHT22;849;48.780;9.216;2022-10-16T11:20:51;21.60;99.90
1704;DHT22;849;48.780;9.216;2022-10-16T11:23:44;21.50;99.90
1704;DHT22;849;48.780;9.216;2022-10-16T11:26:27;21.50;99.90
1704;DHT22;849;48.780;9.216;2022-10-16T11:28:55;21.70;99.90
1704;DHT22;849;48.780;9.216;2022-10-16T11:31:41;21.70;99.90
1704;DHT22;849;48.780;9.216;2022-10-16T11:34:26;21.90;99.90
1704;DHT22;849;48.780;9.216;2022-10-16T11:37:14;22.00;99.90
1704;DHT22;849;48.780;9.216;2022-10-16T11:39:42;21.80;99.90
1704;DHT22;849;48.780;9.216;2022-10-16T11:42:18;22.00;99.90
1704;DHT22;849;48.780;9.216;2022-10-16T11:44:50;21.80;99.90
1704;DHT22;849;48.780;9.216;2022-10-16T11:47:28;21.70;99.90
1704;DHT22;849;48.780;9.216;2022-10-16T11:53:01;22.00;99.90
1704;DHT22;849;48.780;9.216;2022-10-16T11:55:40;22.10;99.90
1704;DHT22;849;48.780;9.216;2022-10-16T12:01:54;22.10;99.90
1704;DHT22;849;48.780;9.216;2022-10-16T12:06:52;22.20;99.90
1704;DHT22;849;48.780;9.216;2022-10-16T12:09:29;22.30;99.90
1704;DHT22;849;48.780;9.216;2022-10-16T12:11:55;22.40;99.90
1704;DHT22;849;48.780;9.216;2022-10-16T12:14:35;22.40;99.90
1704;DHT22;849;48.780;9.216;2022-10-16T12:17:34;22.40;99.90
1704;DHT22;849;48.780;9.216;2022-10-16T12:22:55;22.80;99.90
1704;DHT22;849;48.780;9.216;2022-10-16T12:25:29;22.80;99.90
1704;DHT22;849;48.780;9.216;2022-10-16T12:30:41;22.90;99.90
1704;DHT22;849;48.780;9.216;2022-10-16T12:33:26;23.30;99.90
1704;DHT22;849;48.780;9.216;2022-10-16T12:35:52;23.40;99.90
1704;DHT22;849;48.780;9.216;2022-10-16T12:41:10;23.50;99.90
1704;DHT22;849;48.780;9.216;2022-10-16T12:43:45;23.40;99.90
1704;DHT22;849;48.780;9.216;2022-10-16T12:48:38;23.30;99.90
1704;DHT22;849;48.780;9.216;2022-10-16T12:53:38;23.10;99.90
1704;DHT22;849;48.780;9.216;2022-10-16T12:56:24;23.10;99.90
1704;DHT22;849;48.780;9.216;2022-10-16T13:01:56;23.20;99.90
1704;DHT22;849;48.780;9.216;2022-10-16T13:04:47;23.20;99.90
1704;DHT22;849;48.780;9.216;2022-10-16T13:15:39;23.00;99.90
1704;DHT22;849;48.780;9.216;2022-10-16T13:18:16;23.10;99.90
1704;DHT22;849;48.780;9.216;2022-10-16T13:21:06;23.10;99.90
1704;DHT22;849;48.780;9.216;2022-10-16T13:26:43;23.10;99.90
1704;DHT22;849;48.780;9.216;2022-10-16T13:29:10;23.30;99.90
1704;DHT22;849;48.780;9.216;2022-10-16T13:31:38;23.40;99.90
1704;DHT22;849;48.780;9.216;2022-10-16T13:34:05;23.60;99.90
1704;DHT22;849;48.780;9.216;2022-10-16T13:36:44;23.80;99.90
1704;DHT22;849;48.780;9.216;2022-10-16T13:39:27;23.80;99.90
1704;DHT22;849;48.780;9.216;2022-10-16T13:42:18;24.00;99.90
1704;DHT22;849;48.780;9.216;2022-10-16T13:44:50;24.10;99.90
1704;DHT22;849;48.780;9.216;2022-10-16T13:47:20;24.20;99.90
1704;DHT22;849;48.780;9.216;2022-10-16T13:49:47;24.30;99.90
1704;DHT22;849;48.780;9.216;2022-10-16T13:52:23;24.40;99.90
1704;DHT22;849;48.780;9.216;2022-10-16T13:54:49;24.40;99.90
1704;DHT22;849;48.780;9.216;2022-10-16T13:57:16;24.40;99.90
1704;DHT22;849;48.780;9.216;2022-10-16T13:59:42;24.50;99.90
1704;DHT22;849;48.780;9.216;2022-10-16T14:02:22;24.50;99.90
1704;DHT22;849;48.780;9.216;2022-10-16T14:04:51;24.40;99.90
1704;DHT22;849;48.780;9.216;2022-10-16T14:07:33;24.30;99.90
1704;DHT22;849;48.780;9.216;2022-10-16T14:10:47;24.30;99.90
1704;DHT22;849;48.780;9.216;2022-10-16T14:12:55;24.30;99.90
1704;DHT22;849;48.780;9.216;2022-10-16T14:15:21;24.30;99.90
1704;DHT22;849;48.780;9.216;2022-10-16T14:17:50;24.30;99.90
1704;DHT22;849;48.780;9.216;2022-10-16T14:20:16;24.40;99.90
1704;DHT22;849;48.780;9.216;2022-10-16T14:22:42;24.40;99.90
1704;DHT22;849;48.780;9.216;2022-10-16T14:30:58;24.30;99.90
1704;DHT22;849;48.780;9.216;2022-10-16T14:36:03;23.90;99.90
1704;DHT22;849;48.780;9.216;2022-10-16T14:38:30;23.90;99.90
1704;DHT22;849;48.780;9.216;2022-10-16T14:40:58;23.90;99.90
1704;DHT22;849;48.780;9.216;2022-10-16T14:43:39;24.00;99.90
1704;DHT22;849;48.780;9.216;2022-10-16T14:46:16;23.90;99.90
1704;DHT22;849;48.780;9.216;2022-10-16T14:48:48;23.80;99.90
1704;DHT22;849;48.780;9.216;2022-10-16T14:51:15;23.60;99.90
1704;DHT22;849;48.780;9.216;2022-10-16T14:53:41;23.70;99.90
1704;DHT22;849;48.780;9.216;2022-10-16T14:56:09;23.70;99.90
1704;DHT22;849;48.780;9.216;2022-10-16T14:58:39;23.70;99.90
1704;DHT22;849;48.780;9.216;2022-10-16T15:01:04;23.80;99.90
1704;DHT22;849;48.780;9.216;2022-10-16T15:03:32;23.80;99.90
1704;DHT22;849;48.780;9.216;2022-10-16T15:05:57;23.90;99.90
1704;DHT22;849;48.780;9.216;2022-10-16T15:08:23;23.90;99.90
1704;DHT22;849;48.780;9.216;2022-10-16T15:10:49;24.00;99.90
1704;DHT22;849;48.780;9.216;2022-10-16T15:13:14;24.00;99.90
1704;DHT22;849;48.780;9.216;2022-10-16T15:15:43;24.10;99.90
1704;DHT22;849;48.780;9.216;2022-10-16T15:18:09;24.20;99.90
1704;DHT22;849;48.780;9.216;2022-10-16T15:20:38;24.20;99.90
1704;DHT22;849;48.780;9.216;2022-10-16T15:23:13;24.10;99.90
1704;DHT22;849;48.780;9.216;2022-10-16T15:25:44;24.30;99.90
1704;DHT22;849;48.780;9.216;2022-10-16T15:28:11;24.30;99.90
1704;DHT22;849;48.780;9.216;2022-10-16T15:30:38;24.30;99.90
1704;DHT22;849;48.780;9.216;2022-10-16T15:33:04;24.10;99.90
1704;DHT22;849;48.780;9.216;2022-10-16T15:35:31;23.90;99.90
1704;DHT22;849;48.780;9.216;2022-10-16T15:37:57;23.70;99.90
1704;DHT22;849;48.780;9.216;2022-10-16T15:40:23;23.60;99.90
1704;DHT22;849;48.780;9.216;2022-10-16T15:42:49;23.50;99.90
1704;DHT22;849;48.780;9.216;2022-10-16T15:45:15;23.40;99.90
1704;DHT22;849;48.780;9.216;2022-10-16T15:47:42;23.20;99.90
1704;DHT22;849;48.780;9.216;2022-10-16T15:50:10;23.10;99.90
1704;DHT22;849;48.780;9.216;2022-10-16T15:52:37;23.00;99.90
1704;DHT22;849;48.780;9.216;2022-10-16T15:55:05;23.00;99.90
1704;DHT22;849;48.780;9.216;2022-10-16T15:57:31;22.90;99.90
1704;DHT22;849;48.780;9.216;2022-10-16T15:59:57;22.80;99.90
1704;DHT22;849;48.780;9.216;2022-10-16T16:02:23;22.80;99.90
1704;DHT22;849;48.780;9.216;2022-10-16T16:04:48;22.80;99.90
1704;DHT22;849;48.780;9.216;2022-10-16T16:07:14;22.70;99.90
1704;DHT22;849;48.780;9.216;2022-10-16T16:09:40;22.70;99.90
1704;DHT22;849;48.780;9.216;2022-10-16T16:12:05;22.60;99.90
1704;DHT22;849;48.780;9.216;2022-10-16T16:14:31;22.50;99.90
1704;DHT22;849;48.780;9.216;2022-10-16T16:16:57;22.40;99.90
1704;DHT22;849;48.780;9.216;2022-10-16T16:19:23;22.20;99.90
1704;DHT22;849;48.780;9.216;2022-10-16T16:21:49;22.10;99.90
1704;DHT22;849;48.780;9.216;2022-10-16T16:24:15;22.10;99.90
1704;DHT22;849;48.780;9.216;2022-10-16T16:26:41;21.90;99.90
1704;DHT22;849;48.780;9.216;2022-10-16T16:29:12;21.80;99.90
1704;DHT22;849;48.780;9.216;2022-10-16T16:31:39;21.70;99.90
1704;DHT22;849;48.780;9.216;2022-10-16T16:34:05;21.50;99.90
1704;DHT22;849;48.780;9.216;2022-10-16T16:36:31;21.40;99.90
1704;DHT22;849;48.780;9.216;2022-10-16T16:38:57;21.40;99.90
1704;DHT22;849;48.780;9.216;2022-10-16T16:41:28;21.30;99.90
1704;DHT22;849;48.780;9.216;2022-10-16T16:43:55;21.10;99.90
1704;DHT22;849;48.780;9.216;2022-10-16T16:46:26;21.10;99.90
1704;DHT22;849;48.780;9.216;2022-10-16T16:48:54;21.00;99.90
1704;DHT22;849;48.780;9.216;2022-10-16T16:51:23;21.00;99.90
1704;DHT22;849;48.780;9.216;2022-10-16T16:53:53;21.10;99.90
1704;DHT22;849;48.780;9.216;2022-10-16T16:56:26;21.00;99.90
1704;DHT22;849;48.780;9.216;2022-10-16T16:58:54;21.00;99.90
1704;DHT22;849;48.780;9.216;2022-10-16T17:01:22;21.10;99.90
1704;DHT22;849;48.780;9.216;2022-10-16T17:03:50;21.00;99.90
1704;DHT22;849;48.780;9.216;2022-10-16T17:06:17;20.90;99.90
1704;DHT22;849;48.780;9.216;2022-10-16T17:08:44;21.00;99.90
1704;DHT22;849;48.780;9.216;2022-10-16T17:11:14;21.00;99.90
1704;DHT22;849;48.780;9.216;2022-10-16T17:13:40;21.00;99.90
1704;DHT22;849;48.780;9.216;2022-10-16T17:16:06;21.00;99.90
1704;DHT22;849;48.780;9.216;2022-10-16T17:18:32;20.90;99.90
1704;DHT22;849;48.780;9.216;2022-10-16T17:21:03;20.80;99.90
1704;DHT22;849;48.780;9.216;2022-10-16T17:23:30;20.80;99.90
1704;DHT22;849;48.780;9.216;2022-10-16T17:25:55;20.60;99.90
1704;DHT22;849;48.780;9.216;2022-10-16T17:28:21;20.70;99.90
1704;DHT22;849;48.780;9.216;2022-10-16T17:30:47;20.70;99.90
1704;DHT22;849;48.780;9.216;2022-10-16T17:33:13;20.60;99.90
1704;DHT22;849;48.780;9.216;2022-10-16T17:35:44;20.60;99.90
1704;DHT22;849;48.780;9.216;2022-10-16T17:38:12;20.60;99.90
1704;DHT22;849;48.780;9.216;2022-10-16T17:40:38;20.60;99.90
1704;DHT22;849;48.780;9.216;2022-10-16T17:43:05;20.60;99.90
1704;DHT22;849;48.780;9.216;2022-10-16T17:45:31;20.50;99.90
1704;DHT22;849;48.780;9.216;2022-10-16T17:48:00;20.60;99.90
1704;DHT22;849;48.780;9.216;2022-10-16T17:50:26;20.40;99.90
1704;DHT22;849;48.780;9.216;2022-10-16T17:52:51;20.40;99.90
1704;DHT22;849;48.780;9.216;2022-10-16T17:55:17;20.40;99.90
1704;DHT22;849;48.780;9.216;2022-10-16T17:57:43;20.40;99.90
1704;DHT22;849;48.780;9.216;2022-10-16T18:00:09;20.30;99.90
1704;DHT22;849;48.780;9.216;2022-10-16T18:02:35;20.20;99.90
1704;DHT22;849;48.780;9.216;2022-10-16T18:05:01;20.20;99.90
1704;DHT22;849;48.780;9.216;2022-10-16T18:07:30;20.20;99.90
1704;DHT22;849;48.780;9.216;2022-10-16T18:09:56;20.10;99.90
1704;DHT22;849;48.780;9.216;2022-10-16T18:12:22;20.20;99.90